Time;durP1;ratioP1;P1;durP2;ratioP2;P2;SDS_P1;SDS_P2;PMS_P1;PMS_P2;Temp;Humidity;BMP_temperature;BMP_pressure;BME280_temperature;BME280_humidity;BME280_pressure;Samples;Min_cycle;Max_cycle;Signal;HPM_P1;HPM_P2
2021/12/29 00:00:43;;;;;;;4.55;1.60;;;;;;;9.85;84.57;97387.41;4997289;28;104788;-68
2021/12/29 00:03:12;;;;;;;3.50;1.30;;;;;;;9.75;84.82;97391.88;5000641;28;104389;-70
2021/12/29 00:05:40;;;;;;;3.78;1.30;;;;;;;9.78;84.79;97394.22;4980875;28;102707;-69
2021/12/29 00:08:08;;;;;;;4.18;1.40;;;;;;;9.96;83.89;97388.28;4994504;28;102741;-70
2021/12/29 00:10:37;;;;;;;3.58;1.63;;;;;;;9.77;84.87;97399.63;4996018;28;103072;-69
2021/12/29 00:13:07;;;;;;;4.95;1.65;;;;;;;9.89;84.33;97382.72;4994717;28;103439;-70
2021/12/29 00:15:36;;;;;;;4.88;1.65;;;;;;;9.85;83.73;97392.69;5001654;28;103142;-69
2021/12/29 00:18:05;;;;;;;3.30;1.30;;;;;;;10.03;83.71;97390.22;4994724;28;102683;-69
2021/12/29 00:20:33;;;;;;;4.43;1.65;;;;;;;10.06;83.01;97397.84;4999890;27;105074;-69
2021/12/29 00:23:07;;;;;;;6.47;1.85;;;;;;;9.84;83.25;97406.03;4998302;28;103192;-69
2021/12/29 00:25:40;;;;;;;5.55;2.00;;;;;;;9.94;83.03;97417.41;4998553;28;102697;-70
2021/12/29 00:28:12;;;;;;;4.60;1.60;;;;;;;9.93;83.29;97415.78;4999047;28;104488;-69
2021/12/29 00:30:40;;;;;;;5.03;1.77;;;;;;;9.97;82.68;97406.59;4996405;28;103987;-70
2021/12/29 00:33:31;;;;;;;3.15;1.30;;;;;;;9.84;82.99;97427.97;4948786;28;103170;-68
2021/12/29 00:36:22;;;;;;;4.03;1.40;;;;;;;9.83;82.86;97434.22;4966361;28;102846;-68
2021/12/29 00:39:09;;;;;;;4.60;1.65;;;;;;;9.88;83.06;97439.91;4998726;28;102950;-68
2021/12/29 00:41:57;;;;;;;2.80;1.10;;;;;;;9.83;82.82;97450.03;4998738;28;104146;-68
2021/12/29 00:44:45;;;;;;;3.72;1.33;;;;;;;9.90;83.31;97452.97;4993492;28;103158;-68
2021/12/29 00:47:16;;;;;;;5.07;1.38;;;;;;;10.02;82.45;97459.78;4978568;28;102710;-68
2021/12/29 00:49:46;;;;;;;4.45;1.20;;;;;;;9.94;83.05;97472.81;4998711;28;103159;-68
2021/12/29 00:52:14;;;;;;;3.37;1.30;;;;;;;10.31;81.88;97483.59;4995644;28;104422;-69
2021/12/29 00:54:44;;;;;;;3.42;1.23;;;;;;;10.05;83.32;97480.59;4978356;28;103991;-68
2021/12/29 00:57:12;;;;;;;2.85;1.20;;;;;;;9.99;83.66;97493.53;4977448;28;102659;-68
2021/12/29 00:59:40;;;;;;;3.75;1.40;;;;;;;9.76;84.80;97483.22;4997147;28;103925;-68
2021/12/29 01:02:11;;;;;;;3.53;1.00;;;;;;;9.74;85.02;97484.31;4994137;28;103941;-68
2021/12/29 01:04:40;;;;;;;3.50;1.10;;;;;;;9.85;84.82;97492.94;4993283;28;103215;-68
2021/12/29 01:07:09;;;;;;;3.03;1.10;;;;;;;9.97;84.27;97498.09;4999183;28;102824;-68
2021/12/29 01:09:37;;;;;;;3.45;1.30;;;;;;;10.01;84.59;97512.69;4998308;28;102640;-68
2021/12/29 01:12:06;;;;;;;2.78;1.20;;;;;;;9.91;85.00;97523.22;4994748;28;104587;-68
2021/12/29 01:14:41;;;;;;;3.17;1.10;;;;;;;10.12;84.52;97520.50;4996191;28;103472;-68
2021/12/29 01:17:10;;;;;;;2.30;1.15;;;;;;;10.05;84.14;97520.19;4995768;28;102684;-69
2021/12/29 01:19:42;;;;;;;3.08;1.20;;;;;;;10.20;83.65;97544.44;4995638;28;104128;-68
2021/12/29 01:22:10;;;;;;;2.92;1.20;;;;;;;10.14;83.80;97553.72;4993289;28;103811;-68
2021/12/29 01:24:39;;;;;;;3.17;1.00;;;;;;;9.91;84.69;97555.69;4993954;28;102740;-69
2021/12/29 01:27:07;;;;;;;2.80;1.10;;;;;;;10.01;84.11;97557.53;4997147;28;103004;-69
2021/12/29 01:29:35;;;;;;;2.72;1.23;;;;;;;9.98;84.48;97565.72;4997260;28;104191;-68
2021/12/29 01:32:04;;;;;;;2.22;0.93;;;;;;;10.05;84.60;97561.59;4994463;28;104033;-69
2021/12/29 01:34:35;;;;;;;3.45;1.15;;;;;;;9.77;85.34;97563.97;4980869;28;104234;-68
2021/12/29 01:37:04;;;;;;;4.20;1.10;;;;;;;10.14;84.54;97571.34;5001502;28;102928;-68
2021/12/29 01:39:32;;;;;;;2.28;0.95;;;;;;;10.20;84.42;97565.53;4999008;28;103968;-69
2021/12/29 01:42:01;;;;;;;2.60;1.00;;;;;;;9.98;83.95;97566.56;4999909;28;104014;-69
2021/12/29 01:44:29;;;;;;;2.97;1.20;;;;;;;10.18;84.15;97578.03;4983051;28;103200;-69
2021/12/29 01:46:59;;;;;;;2.90;1.00;;;;;;;10.12;83.85;97578.53;4995982;28;102842;-70
2021/12/29 01:49:28;;;;;;;2.28;1.00;;;;;;;9.98;83.75;97594.75;5001393;28;102834;-69
2021/12/29 01:52:04;;;;;;;3.80;1.20;;;;;;;10.11;83.27;97600.63;4980920;28;104187;-69
2021/12/29 01:54:34;;;;;;;3.13;1.10;;;;;;;10.17;82.56;97610.69;4982683;28;102680;-69
2021/12/29 01:57:05;;;;;;;1.88;0.82;;;;;;;10.42;81.87;97607.53;4998486;28;102602;-70
2021/12/29 01:59:35;;;;;;;2.07;0.90;;;;;;;10.21;81.96;97614.72;5000337;28;103127;-69
2021/12/29 02:02:04;;;;;;;3.63;1.00;;;;;;;10.49;80.76;97621.88;4993817;28;104643;-69
2021/12/29 02:04:32;;;;;;;2.60;0.90;;;;;;;10.53;80.42;97620.63;5001895;28;103680;-70
2021/12/29 02:07:06;;;;;;;2.00;1.08;;;;;;;10.19;81.32;97632.50;4999838;28;104364;-69
2021/12/29 02:09:34;;;;;;;1.20;0.80;;;;;;;10.31;81.43;97636.69;5001772;28;104130;-67
2021/12/29 02:12:03;;;;;;;1.73;0.73;;;;;;;10.13;81.84;97641.78;4996462;28;103497;-69
2021/12/29 02:14:33;;;;;;;1.40;0.70;;;;;;;10.28;81.71;97653.66;4978495;28;103316;-68
2021/12/29 02:17:01;;;;;;;0.80;0.60;;;;;;;10.25;81.82;97639.88;4998635;28;103060;-69
2021/12/29 02:19:30;;;;;;;1.67;0.80;;;;;;;10.09;81.33;97642.16;4997694;28;103904;-68
2021/12/29 02:22:07;;;;;;;1.83;0.80;;;;;;;10.10;81.31;97644.66;4995714;28;103507;-68
2021/12/29 02:24:39;;;;;;;1.53;0.77;;;;;;;10.34;80.85;97647.81;5001894;28;103380;-68
2021/12/29 02:27:11;;;;;;;2.25;0.70;;;;;;;10.42;80.79;97657.72;5000503;28;102686;-68
2021/12/29 02:29:43;;;;;;;0.95;0.70;;;;;;;10.15;81.12;97675.97;5000117;28;102689;-68
2021/12/29 02:32:12;;;;;;;1.35;0.70;;;;;;;10.13;80.38;97677.91;4997592;28;104693;-68
2021/12/29 02:34:40;;;;;;;1.03;0.60;;;;;;;10.26;79.88;97675.88;4996635;28;103315;-70
2021/12/29 02:37:18;;;;;;;1.08;0.60;;;;;;;10.28;79.13;97677.41;4999858;28;102643;-70
2021/12/29 02:39:47;;;;;;;2.85;0.90;;;;;;;10.19;78.92;97677.38;4999274;28;103910;-69
2021/12/29 02:42:20;;;;;;;1.50;0.80;;;;;;;10.42;78.35;97681.47;4999288;28;104132;-70
2021/12/29 02:44:49;;;;;;;1.52;0.70;;;;;;;10.39;78.38;97692.28;4999479;28;103234;-70
2021/12/29 02:47:17;;;;;;;2.00;0.80;;;;;;;10.39;78.81;97702.84;5000120;28;102891;-68
2021/12/29 02:49:46;;;;;;;1.60;0.80;;;;;;;10.57;77.98;97703.06;4999756;28;103772;-68
2021/12/29 02:52:15;;;;;;;1.20;0.60;;;;;;;10.57;77.80;97701.25;4997472;28;103671;-69
2021/12/29 02:54:43;;;;;;;1.30;0.80;;;;;;;10.66;77.41;97721.59;4978693;28;103444;-69
2021/12/29 02:57:11;;;;;;;2.10;0.80;;;;;;;10.55;77.87;97713.78;4999516;28;102653;-69
2021/12/29 02:59:41;;;;;;;1.40;0.70;;;;;;;10.28;78.66;97718.78;4977712;28;103921;-69
2021/12/29 03:02:09;;;;;;;2.33;0.80;;;;;;;10.24;79.58;97715.59;4975692;28;103153;-69
2021/12/29 03:04:40;;;;;;;1.88;0.88;;;;;;;10.35;79.57;97727.88;4998006;28;103349;-69
2021/12/29 03:07:09;;;;;;;1.80;0.80;;;;;;;10.28;80.05;97732.00;4997489;28;102781;-69
2021/12/29 03:09:38;;;;;;;2.88;0.70;;;;;;;10.45;78.56;97731.38;4999360;28;102735;-69
2021/12/29 03:12:07;;;;;;;1.58;0.77;;;;;;;10.28;80.10;97740.75;5000143;28;103914;-69
2021/12/29 03:14:35;;;;;;;1.63;0.80;;;;;;;10.40;79.37;97752.06;4977192;28;103421;-69
2021/12/29 03:17:06;;;;;;;2.15;0.85;;;;;;;10.38;79.90;97756.66;5000074;28;102861;-69
2021/12/29 03:19:34;;;;;;;1.30;0.60;;;;;;;10.26;80.36;97747.13;4978189;28;104384;-69
2021/12/29 03:22:03;;;;;;;1.98;0.70;;;;;;;10.25;79.74;97756.84;4995056;28;102997;-69
2021/12/29 03:24:31;;;;;;;1.58;0.70;;;;;;;10.10;80.84;97744.09;4999439;28;103227;-69
2021/12/29 03:27:01;;;;;;;2.25;0.93;;;;;;;10.36;79.72;97745.38;4997905;28;102594;-70
2021/12/29 03:29:30;;;;;;;1.95;0.82;;;;;;;10.01;81.68;97729.91;4998303;28;102897;-69
2021/12/29 03:32:00;;;;;;;1.92;0.70;;;;;;;10.13;80.92;97728.88;4995558;28;103648;-69
2021/12/29 03:34:28;;;;;;;3.88;0.93;;;;;;;10.15;81.27;97736.66;4995725;28;103202;-68
2021/12/29 03:36:56;;;;;;;2.33;0.90;;;;;;;10.03;81.71;97742.94;4998350;28;102596;-68
2021/12/29 03:39:26;;;;;;;1.77;0.90;;;;;;;10.13;81.49;97750.00;4996551;28;102873;-68
2021/12/29 03:41:55;;;;;;;2.67;0.90;;;;;;;10.13;81.96;97754.44;4998955;28;103621;-68
2021/12/29 03:44:24;;;;;;;1.63;0.80;;;;;;;10.12;81.95;97758.00;4999090;28;103243;-68
2021/12/29 03:46:53;;;;;;;1.75;0.70;;;;;;;10.26;81.60;97752.41;4998334;28;102751;-68
2021/12/29 03:49:21;;;;;;;1.80;0.80;;;;;;;10.38;81.19;97760.13;4996394;28;103986;-68
2021/12/29 03:51:50;;;;;;;1.93;0.73;;;;;;;10.25;81.81;97758.66;4977312;28;103270;-68
2021/12/29 03:54:18;;;;;;;1.77;0.80;;;;;;;10.38;80.96;97748.72;4978171;28;103861;-68
2021/12/29 03:56:48;;;;;;;1.30;0.55;;;;;;;10.21;81.00;97744.06;4996574;28;102679;-68
2021/12/29 03:59:18;;;;;;;1.75;0.70;;;;;;;10.14;81.59;97741.09;4995891;28;103010;-68
2021/12/29 04:01:50;;;;;;;2.10;0.73;;;;;;;10.21;81.43;97751.97;4995752;28;103540;-68
2021/12/29 04:04:20;;;;;;;1.07;0.50;;;;;;;10.31;81.22;97752.84;4980109;28;105228;-69
2021/12/29 04:06:48;;;;;;;1.35;0.50;;;;;;;10.34;81.13;97757.88;4977567;28;103161;-69
2021/12/29 04:09:18;;;;;;;1.00;0.50;;;;;;;10.15;81.54;97757.78;4998888;28;102763;-68
2021/12/29 04:11:50;;;;;;;0.60;0.43;;;;;;;10.02;81.79;97762.41;5000129;28;103223;-69
2021/12/29 04:14:25;;;;;;;0.80;0.40;;;;;;;10.05;81.99;97772.69;4978789;28;102876;-69
2021/12/29 04:16:56;;;;;;;0.70;0.40;;;;;;;10.23;81.35;97773.78;4977840;28;102815;-69
2021/12/29 04:19:40;;;;;;;1.38;0.60;;;;;;;10.08;81.61;97780.31;4995334;28;103713;-69
2021/12/29 04:22:09;;;;;;;1.42;0.40;;;;;;;10.16;81.35;97786.66;4996781;28;103738;-69
2021/12/29 04:24:37;;;;;;;0.65;0.40;;;;;;;10.07;81.68;97791.88;4996583;28;103223;-69
2021/12/29 04:27:06;;;;;;;0.30;0.30;;;;;;;10.14;81.93;97808.88;4999776;28;102770;-69
2021/12/29 04:29:35;;;;;;;0.60;0.40;;;;;;;10.09;82.15;97819.78;4998928;28;102680;-69
2021/12/29 04:32:05;;;;;;;0.80;0.40;;;;;;;10.10;81.70;97816.22;4999945;28;104886;-69
2021/12/29 04:34:33;;;;;;;0.60;0.30;;;;;;;10.30;81.16;97823.28;4998001;28;103157;-68
2021/12/29 04:37:01;;;;;;;1.00;0.40;;;;;;;10.05;82.58;97820.19;4998686;28;102824;-68
2021/12/29 04:39:29;;;;;;;0.77;0.40;;;;;;;10.04;82.75;97826.44;4999016;28;102633;-68
2021/12/29 04:41:57;;;;;;;0.60;0.30;;;;;;;9.82;84.32;97819.47;4975752;28;104315;-68
2021/12/29 04:44:25;;;;;;;0.75;0.40;;;;;;;10.10;83.06;97829.41;4994559;28;103230;-69
2021/12/29 04:46:55;;;;;;;0.60;0.40;;;;;;;10.12;83.21;97831.91;4995118;28;102692;-69
2021/12/29 04:49:28;;;;;;;0.80;0.43;;;;;;;10.07;84.18;97834.94;4995492;28;103744;-69
2021/12/29 04:52:02;;;;;;;0.75;0.40;;;;;;;10.01;84.70;97843.34;4994510;28;103484;-69
2021/12/29 04:54:31;;;;;;;1.20;0.50;;;;;;;9.89;85.63;97855.75;4977383;28;104342;-69
2021/12/29 04:57:00;;;;;;;0.45;0.30;;;;;;;9.96;86.28;97858.75;4991566;28;102655;-69
2021/12/29 04:59:29;;;;;;;1.20;0.40;;;;;;;9.87;88.28;97855.06;4998356;28;104211;-69
2021/12/29 05:01:57;;;;;;;1.20;0.50;;;;;;;9.82;89.82;97859.03;4974910;28;103882;-69
2021/12/29 05:04:32;;;;;;;0.57;0.30;;;;;;;10.20;88.06;97855.88;4996425;28;103317;-69
2021/12/29 05:09:47;;;;;;;0.55;0.40;;;;;;;9.82;90.15;97851.94;4998553;28;103797;-69
2021/12/29 05:12:15;;;;;;;0.85;0.40;;;;;;;9.46;91.81;97860.22;4998068;28;103927;-68
2021/12/29 05:14:43;;;;;;;0.70;0.40;;;;;;;9.64;91.24;97864.00;5000376;28;103238;-68
2021/12/29 05:17:12;;;;;;;0.47;0.40;;;;;;;9.81;89.98;97871.38;5000976;28;102615;-68
2021/12/29 05:19:42;;;;;;;1.17;0.43;;;;;;;9.55;90.66;97880.56;5001733;28;103634;-68
2021/12/29 05:22:10;;;;;;;1.20;0.40;;;;;;;9.52;92.04;97878.19;5000386;28;103282;-68
2021/12/29 05:24:39;;;;;;;0.98;0.40;;;;;;;9.63;92.63;97891.34;4998868;28;103251;-68
2021/12/29 05:27:07;;;;;;;1.33;0.60;;;;;;;9.28;95.19;97885.44;5003361;28;102955;-69
2021/12/29 05:29:35;;;;;;;0.85;0.50;;;;;;;9.40;95.93;97876.56;5001056;28;103635;-69
2021/12/29 05:32:04;;;;;;;1.02;0.40;;;;;;;9.41;96.28;97883.47;5000475;28;103859;-68
2021/12/29 05:34:32;;;;;;;0.87;0.40;;;;;;;9.65;95.33;97892.06;4981390;28;104168;-68
2021/12/29 05:37:01;;;;;;;1.10;0.50;;;;;;;9.66;94.59;97888.47;4978088;28;102873;-65
2021/12/29 05:39:29;;;;;;;1.10;0.50;;;;;;;9.63;95.99;97899.25;4999731;28;103093;-70
2021/12/29 05:41:58;;;;;;;1.33;0.57;;;;;;;10.09;93.77;97896.34;5000853;28;103086;-69
2021/12/29 05:44:26;;;;;;;0.80;0.50;;;;;;;10.05;94.22;97904.63;4999506;28;103179;-69
2021/12/29 05:46:55;;;;;;;0.90;0.60;;;;;;;10.15;92.49;97910.84;5001527;28;102711;-69
2021/12/29 05:49:23;;;;;;;1.23;0.55;;;;;;;10.17;92.36;97908.91;4981569;28;103698;-69
2021/12/29 05:51:51;;;;;;;0.80;0.50;;;;;;;10.26;93.27;97918.72;4999630;28;103631;-69
2021/12/29 05:54:21;;;;;;;0.70;0.50;;;;;;;10.14;92.09;97915.28;5000814;28;103201;-69
2021/12/29 05:56:49;;;;;;;0.90;0.60;;;;;;;10.28;92.50;97919.41;4978658;28;102871;-68
2021/12/29 05:59:18;;;;;;;1.70;0.93;;;;;;;10.09;93.91;97913.97;4999886;28;103766;-69
2021/12/29 06:01:49;;;;;;;2.13;0.90;;;;;;;10.41;92.52;97912.16;4997596;28;103773;-69
2021/12/29 06:04:17;;;;;;;1.30;0.47;;;;;;;10.61;91.04;97918.41;4999333;28;103357;-68
2021/12/29 06:06:45;;;;;;;0.80;0.57;;;;;;;10.56;90.72;97926.72;5002236;28;102572;-68
2021/12/29 06:09:14;;;;;;;1.27;0.50;;;;;;;10.57;90.53;97922.28;4996671;28;103607;-69
2021/12/29 06:11:47;;;;;;;0.50;0.35;;;;;;;10.72;89.94;97932.38;4998526;28;103633;-69
2021/12/29 06:14:15;;;;;;;0.80;0.50;;;;;;;10.66;90.16;97943.47;5000761;28;103225;-68
2021/12/29 06:16:45;;;;;;;0.43;0.32;;;;;;;10.83;89.57;97931.47;4994542;28;102873;-68
2021/12/29 06:19:15;;;;;;;1.42;0.50;;;;;;;10.44;89.60;97938.31;4986511;28;103185;-68
2021/12/29 06:21:46;;;;;;;0.70;0.40;;;;;;;10.69;90.15;97934.44;4972308;28;104372;-68
2021/12/29 06:24:14;;;;;;;0.43;0.40;;;;;;;10.59;90.29;97933.53;4988986;28;103312;-68
2021/12/29 06:26:42;;;;;;;0.63;0.40;;;;;;;10.80;89.58;97940.50;4992395;28;102822;-68
2021/12/29 06:29:12;;;;;;;0.80;0.50;;;;;;;10.89;88.61;97938.88;4992800;28;102958;-68
2021/12/29 06:31:44;;;;;;;1.83;0.63;;;;;;;10.61;88.25;97945.66;4992555;28;105509;-68
2021/12/29 06:34:13;;;;;;;1.15;0.60;;;;;;;10.58;89.22;97939.81;4995001;28;103285;-68
2021/12/29 06:36:41;;;;;;;1.08;0.65;;;;;;;10.79;88.70;97946.75;4999521;28;103070;-70
2021/12/29 06:39:09;;;;;;;0.70;0.50;;;;;;;10.90;88.19;97941.38;4977868;28;103984;-73
2021/12/29 06:41:40;;;;;;;1.23;0.80;;;;;;;10.78;88.23;97942.41;4994254;28;103694;-73
2021/12/29 06:44:08;;;;;;;1.20;0.68;;;;;;;10.55;89.96;97948.81;4976576;28;103294;-73
2021/12/29 06:46:39;;;;;;;1.85;0.60;;;;;;;10.82;88.72;97951.78;4995121;28;102645;-73
2021/12/29 06:49:07;;;;;;;1.63;0.73;;;;;;;10.86;87.64;97945.25;4979098;28;103854;-74
2021/12/29 06:51:35;;;;;;;1.50;0.67;;;;;;;10.89;87.90;97950.25;4995981;28;103121;-73
2021/12/29 06:54:05;;;;;;;1.27;0.90;;;;;;;10.83;87.87;97950.81;4997804;28;103232;-73
2021/12/29 06:56:33;;;;;;;0.80;0.60;;;;;;;10.82;88.00;97964.97;4997838;28;102696;-73
2021/12/29 06:59:02;;;;;;;1.80;0.70;;;;;;;10.92;87.55;97965.88;5001545;28;102768;-72
2021/12/29 07:01:30;;;;;;;0.93;0.70;;;;;;;10.83;87.76;97971.94;4995927;28;103290;-73
2021/12/29 07:04:00;;;;;;;3.08;1.40;;;;;;;10.28;89.67;97973.06;4996283;28;103065;-74
2021/12/29 07:06:28;;;;;;;2.88;1.10;;;;;;;10.05;90.99;97983.81;4999374;28;102709;-73
2021/12/29 07:08:56;;;;;;;2.63;1.00;;;;;;;9.99;90.08;97984.31;5001033;28;103712;-67
2021/12/29 07:11:24;;;;;;;2.25;1.13;;;;;;;10.16;90.11;98002.28;4995563;28;102696;-67
2021/12/29 07:13:52;;;;;;;3.40;1.00;;;;;;;10.03;90.08;97996.28;4997238;28;103310;-67
2021/12/29 07:16:21;;;;;;;3.33;1.60;;;;;;;9.94;89.57;98003.13;4980450;28;102737;-67
2021/12/29 07:18:49;;;;;;;3.22;1.60;;;;;;;9.73;87.68;98013.63;4997051;28;103435;-68
2021/12/29 07:21:19;;;;;;;2.03;1.10;;;;;;;10.07;87.01;98001.19;4979811;28;103222;-67
2021/12/29 07:23:50;;;;;;;2.65;1.08;;;;;;;10.18;85.93;98013.53;4992241;28;103230;-67
2021/12/29 07:26:18;;;;;;;2.65;1.02;;;;;;;10.13;86.26;98023.66;4973541;28;105381;-68
2021/12/29 07:28:46;;;;;;;2.35;0.90;;;;;;;10.36;85.42;98020.78;4992150;28;102683;-68
2021/12/29 07:31:14;;;;;;;3.60;1.20;;;;;;;10.28;85.06;98019.75;4991962;28;104003;-68
2021/12/29 07:33:42;;;;;;;3.35;1.02;;;;;;;10.19;85.21;98033.72;4993104;28;103237;-68
2021/12/29 07:36:11;;;;;;;3.03;1.00;;;;;;;10.23;85.41;98029.84;4992393;28;102738;-73
2021/12/29 07:38:41;;;;;;;3.95;1.00;;;;;;;10.00;85.47;98044.00;4995695;28;104597;-68
2021/12/29 07:41:10;;;;;;;3.10;1.10;;;;;;;9.96;87.20;98047.88;4990741;28;103283;-67
2021/12/29 07:43:39;;;;;;;2.70;1.00;;;;;;;10.13;86.51;98050.03;4994941;28;103263;-68
2021/12/29 07:46:08;;;;;;;2.08;0.90;;;;;;;10.28;85.75;98061.97;4993930;28;103466;-68
2021/12/29 07:48:37;;;;;;;2.45;1.10;;;;;;;10.12;87.16;98053.59;4977321;28;102716;-68
2021/12/29 07:51:06;;;;;;;2.78;1.15;;;;;;;10.16;86.68;98060.34;4993411;28;104172;-67
2021/12/29 07:53:37;;;;;;;2.33;1.00;;;;;;;10.10;87.49;98058.16;4970035;28;103364;-68
2021/12/29 07:56:07;;;;;;;2.60;0.90;;;;;;;9.86;88.17;98060.94;4994602;28;102759;-67
2021/12/29 07:58:36;;;;;;;1.70;0.80;;;;;;;10.20;87.26;98062.59;5000685;28;103775;-67
2021/12/29 08:01:04;;;;;;;1.60;0.73;;;;;;;10.36;86.87;98072.75;4978075;28;102735;-68
2021/12/29 08:03:32;;;;;;;1.48;0.70;;;;;;;10.55;85.83;98069.47;4999263;28;103115;-68
2021/12/29 08:06:01;;;;;;;1.80;0.90;;;;;;;10.72;85.81;98074.22;4995611;28;102724;-73
2021/12/29 08:08:29;;;;;;;1.85;1.15;;;;;;;10.58;86.22;98071.88;4976479;28;103811;-73
2021/12/29 08:10:57;;;;;;;1.80;0.90;;;;;;;10.74;85.72;98083.69;4993290;28;103853;-73
2021/12/29 08:13:27;;;;;;;1.52;0.93;;;;;;;10.92;85.46;98087.44;4976129;28;104213;-73
2021/12/29 08:15:58;;;;;;;1.67;0.93;;;;;;;10.94;85.09;98085.53;4996811;28;102773;-67
2021/12/29 08:18:26;;;;;;;2.78;1.05;;;;;;;10.77;85.33;98080.78;4996093;28;102947;-68
2021/12/29 08:20:54;;;;;;;3.15;0.93;;;;;;;10.89;85.61;98078.94;4997086;28;103307;-68
2021/12/29 08:23:22;;;;;;;3.03;1.05;;;;;;;10.80;85.33;98077.91;4980101;28;104206;-63
2021/12/29 08:25:50;;;;;;;1.17;0.80;;;;;;;10.91;85.94;98084.94;4996620;28;103076;-67
2021/12/29 08:28:20;;;;;;;1.50;1.00;;;;;;;10.95;86.21;98087.16;4996387;28;103522;-67
2021/12/29 08:30:50;;;;;;;1.67;0.90;;;;;;;10.87;85.97;98094.91;4997011;28;104066;-73
2021/12/29 08:33:18;;;;;;;2.13;1.05;;;;;;;11.14;85.94;98090.94;4997039;28;103309;-71
2021/12/29 08:35:46;;;;;;;1.80;0.80;;;;;;;11.22;85.71;98088.47;4996550;28;102969;-71
2021/12/29 08:38:14;;;;;;;1.35;0.70;;;;;;;11.27;85.00;98081.84;4979132;28;103166;-71
2021/12/29 08:40:42;;;;;;;1.13;0.80;;;;;;;11.39;84.57;98085.25;4997006;28;103604;-72
2021/12/29 08:43:14;;;;;;;1.83;0.73;;;;;;;11.35;84.43;98083.81;4995220;28;103207;-71
2021/12/29 08:45:43;;;;;;;1.40;0.80;;;;;;;11.28;84.55;98072.94;4976378;28;102782;-72
2021/12/29 08:48:13;;;;;;;2.15;1.00;;;;;;;11.35;84.54;98083.81;4998565;28;102665;-71
2021/12/29 08:50:41;;;;;;;1.60;0.90;;;;;;;11.35;84.57;98083.81;4994193;28;103908;-72
2021/12/29 08:53:10;;;;;;;1.48;1.10;;;;;;;11.31;84.20;98088.53;4995872;28;103245;-71
2021/12/29 08:55:46;;;;;;;1.50;1.30;;;;;;;11.30;84.65;98086.88;4971599;28;102768;-72
2021/12/29 08:58:15;;;;;;;1.70;1.10;;;;;;;11.43;84.21;98086.66;4994518;28;103824;-71
2021/12/29 09:00:44;;;;;;;2.03;1.20;;;;;;;11.31;84.39;98087.72;4996910;28;103259;-71
2021/12/29 09:03:16;;;;;;;1.95;1.17;;;;;;;11.05;84.51;98093.38;4978109;28;104247;-72
2021/12/29 09:05:44;;;;;;;1.15;0.90;;;;;;;11.17;84.98;98085.41;4979392;28;102679;-71
2021/12/29 09:08:13;;;;;;;2.03;1.00;;;;;;;11.19;84.17;98088.75;4997869;28;103892;-72
2021/12/29 09:10:41;;;;;;;1.57;1.10;;;;;;;11.43;83.58;98086.66;4994706;28;103272;-71
2021/12/29 09:13:09;;;;;;;1.58;1.15;;;;;;;11.38;83.28;98094.16;4996491;28;103376;-72
2021/12/29 09:15:37;;;;;;;2.17;0.98;;;;;;;11.32;82.95;98094.66;4996851;28;102800;-72
2021/12/29 09:18:06;;;;;;;1.73;1.00;;;;;;;11.30;83.06;98099.25;4995688;28;103684;-72
2021/12/29 09:20:43;;;;;;;1.67;0.88;;;;;;;11.45;81.80;98101.41;4995245;28;103820;-72
2021/12/29 09:23:14;;;;;;;2.10;1.50;;;;;;;11.18;82.74;98106.41;4997460;28;102946;-72
2021/12/29 09:25:45;;;;;;;1.98;0.77;;;;;;;11.51;82.85;98100.91;4997105;28;102706;-73
2021/12/29 09:28:16;;;;;;;1.30;0.98;;;;;;;11.62;82.39;98102.66;4991443;28;102754;-72
2021/12/29 09:30:48;;;;;;;2.03;0.95;;;;;;;11.54;82.11;98108.56;4995224;28;103345;-72
2021/12/29 09:33:19;;;;;;;1.65;0.90;;;;;;;11.43;82.67;98113.09;4994663;28;103304;-71
2021/12/29 09:35:51;;;;;;;2.10;0.97;;;;;;;11.59;81.41;98108.19;4988784;28;102853;-72
2021/12/29 09:38:20;;;;;;;1.60;1.02;;;;;;;10.81;84.37;98119.19;4994100;28;102625;-72
2021/12/29 09:40:49;;;;;;;2.97;1.30;;;;;;;11.12;83.12;98129.84;4977705;28;103263;-72
2021/12/29 09:43:20;;;;;;;2.53;1.20;;;;;;;11.28;83.15;98133.75;4975393;28;104296;-72
2021/12/29 09:45:49;;;;;;;1.98;0.80;;;;;;;11.35;82.92;98137.56;4989146;28;102858;-72
2021/12/29 09:48:17;;;;;;;1.67;0.93;;;;;;;11.60;81.94;98133.66;4968103;28;104070;-72
2021/12/29 09:50:46;;;;;;;1.92;1.00;;;;;;;11.65;81.48;98123.53;4975619;28;103797;-72
2021/12/29 09:53:17;;;;;;;2.22;1.00;;;;;;;11.75;80.93;98124.47;4958982;28;103283;-72
2021/12/29 09:55:46;;;;;;;3.45;1.30;;;;;;;11.63;81.13;98130.75;4982632;28;103217;-73
2021/12/29 09:58:15;;;;;;;2.17;1.20;;;;;;;11.81;80.94;98133.69;4960473;28;102896;-72
2021/12/29 10:00:47;;;;;;;1.80;1.10;;;;;;;11.78;80.31;98134.78;4974959;28;104390;-73
2021/12/29 10:03:19;;;;;;;3.13;1.50;;;;;;;11.81;80.07;98139.81;4988475;28;103310;-72
2021/12/29 10:05:52;;;;;;;1.77;1.30;;;;;;;11.80;79.09;98132.00;4991126;28;102705;-72
2021/12/29 10:08:26;;;;;;;1.77;1.10;;;;;;;11.82;79.39;98130.88;4996879;28;103084;-69
2021/12/29 10:10:56;;;;;;;2.05;1.20;;;;;;;11.80;80.32;98127.53;4990271;28;103281;-72
2021/12/29 10:13:28;;;;;;;3.17;1.10;;;;;;;12.00;79.44;98131.97;4993675;28;103022;-72
2021/12/29 10:16:01;;;;;;;2.30;1.20;;;;;;;11.45;80.72;98130.50;4971801;27;102965;-71
2021/12/29 10:18:32;;;;;;;2.38;1.10;;;;;;;11.76;80.09;98120.81;5027952;27;103927;-71
2021/12/29 10:21:04;;;;;;;1.70;1.10;;;;;;;11.86;79.95;98120.88;5012326;28;103796;-71
2021/12/29 10:23:36;;;;;;;2.65;1.05;;;;;;;11.94;80.49;98129.84;5014241;28;104128;-71
2021/12/29 10:26:06;;;;;;;1.13;0.80;;;;;;;11.97;80.34;98119.00;5016862;27;102695;-71
2021/12/29 10:28:40;;;;;;;2.08;1.10;;;;;;;12.10;79.78;98114.28;5007727;28;103169;-72
2021/12/29 10:31:13;;;;;;;1.67;1.10;;;;;;;12.03;79.00;98115.81;5018234;27;104017;-72
2021/12/29 10:33:44;;;;;;;2.45;1.02;;;;;;;11.96;80.14;98112.00;5017265;28;103193;-72
2021/12/29 10:36:19;;;;;;;1.75;1.00;;;;;;;12.13;79.84;98103.44;5016309;28;102682;-71
2021/12/29 10:38:52;;;;;;;2.55;1.17;;;;;;;12.20;79.40;98099.28;5016992;27;104157;-71
2021/12/29 10:41:20;;;;;;;1.90;1.10;;;;;;;12.27;79.13;98098.75;5017551;27;103388;-72
2021/12/29 10:43:58;;;;;;;2.10;1.17;;;;;;;12.08;79.75;98089.75;5011866;27;103135;-72
2021/12/29 10:46:31;;;;;;;2.60;1.37;;;;;;;11.99;79.95;98081.78;5013750;28;103002;-72
2021/12/29 10:49:01;;;;;;;1.80;1.17;;;;;;;12.11;80.25;98093.94;5016811;28;102760;-71
2021/12/29 10:51:32;;;;;;;2.55;1.38;;;;;;;11.68;81.67;98096.81;5014800;27;103886;-71
2021/12/29 10:54:12;;;;;;;2.92;1.33;;;;;;;11.84;80.73;98102.50;5014294;27;103205;-71
2021/12/29 10:56:42;;;;;;;1.80;1.30;;;;;;;11.66;81.50;98090.81;5016579;28;102673;-71
2021/12/29 10:59:20;;;;;;;3.63;1.30;;;;;;;11.47;81.52;98096.00;5007330;28;102842;-71
2021/12/29 11:01:50;;;;;;;2.13;1.35;;;;;;;11.54;82.06;98105.09;5010602;28;103294;-71
2021/12/29 11:04:20;;;;;;;2.63;1.27;;;;;;;11.65;81.46;98107.66;5014433;27;103199;-71
2021/12/29 11:06:55;;;;;;;3.27;1.20;;;;;;;11.90;80.56;98101.94;5015909;28;102651;-71
2021/12/29 11:09:28;;;;;;;3.33;1.27;;;;;;;11.69;81.13;98100.28;5017691;27;102592;-72
2021/12/29 11:11:57;;;;;;;1.60;1.00;;;;;;;12.11;80.41;98099.25;5017789;28;103247;-71
2021/12/29 11:14:28;;;;;;;2.20;1.50;;;;;;;12.17;79.49;98109.31;5017675;27;103601;-71
2021/12/29 11:17:08;;;;;;;2.72;1.27;;;;;;;12.03;80.34;98105.22;5016143;27;102792;-72
2021/12/29 11:19:39;;;;;;;1.88;1.10;;;;;;;12.21;80.05;98100.94;4999630;28;104178;-71
2021/12/29 11:22:11;;;;;;;3.10;1.53;;;;;;;12.21;79.90;98094.81;5011383;28;103263;-72
2021/12/29 11:24:43;;;;;;;2.45;1.42;;;;;;;12.20;79.71;98093.16;5016554;28;103246;-71
2021/12/29 11:27:14;;;;;;;2.30;1.27;;;;;;;12.31;79.37;98086.91;5016312;27;102593;-71
2021/12/29 11:29:53;;;;;;;2.17;1.40;;;;;;;11.94;80.13;98102.53;5013207;27;103980;-71
2021/12/29 11:32:31;;;;;;;2.35;1.30;;;;;;;12.17;79.80;98083.66;5007116;27;103238;-71
2021/12/29 11:35:12;;;;;;;1.98;1.20;;;;;;;12.16;79.06;98074.03;5013981;27;103259;-72
2021/12/29 11:37:44;;;;;;;4.15;1.45;;;;;;;12.19;78.98;98076.41;5017673;27;103056;-71
2021/12/29 11:40:16;;;;;;;4.00;1.45;;;;;;;12.21;79.80;98079.75;5017007;28;103662;-71
2021/12/29 11:42:48;;;;;;;9.00;4.63;;;;;;;11.98;80.13;98088.91;4999773;27;104240;-71